Time;durP1;ratioP1;P1;durP2;ratioP2;P2;SDS_P1;SDS_P2;PMS_P1;PMS_P2;Temp;Humidity;BMP_temperature;BMP_pressure;BME280_temperature;BME280_humidity;BME280_pressure;Samples;Min_cycle;Max_cycle;Signal;HPM_P1;HPM_P2
2023/04/02 00:00:08;;;;;;;1.83;0.95;;;;;;;10.25;71.67;99644.00;4909153;29;20144;-89
2023/04/02 00:02:33;;;;;;;1.90;0.90;;;;;;;10.13;71.55;99632.88;4926516;29;20040;-88
2023/04/02 00:05:18;;;;;;;3.10;1.40;;;;;;;10.19;72.09;99631.34;4916765;29;20098;-88
2023/04/02 00:07:50;;;;;;;2.13;1.30;;;;;;;10.05;72.20;99624.94;4941111;29;20146;-88
2023/04/02 00:10:39;;;;;;;1.65;0.90;;;;;;;10.02;72.57;99641.38;4906323;29;20066;-89
2023/04/02 00:13:36;;;;;;;3.15;0.93;;;;;;;10.01;72.57;99634.34;4920833;29;20043;-87
2023/04/02 00:16:04;;;;;;;1.70;0.90;;;;;;;9.79;72.78;99610.06;4914007;29;20490;-88
2023/04/02 00:18:32;;;;;;;1.65;1.00;;;;;;;9.98;72.62;99634.72;4923564;29;20043;-88
2023/04/02 00:21:18;;;;;;;1.60;0.95;;;;;;;9.93;72.97;99620.00;4926349;29;20043;-89
2023/04/02 00:23:44;;;;;;;1.88;1.00;;;;;;;9.81;72.98;99626.81;4907577;29;20102;-88
2023/04/02 00:26:23;;;;;;;;;;;;;;;9.92;72.91;99634.41;4938351;29;20051;-87
2023/04/02 00:28:56;;;;;;;4.63;1.00;;;;;;;9.81;73.38;99640.25;4949577;28;19976;-87
2023/04/02 00:31:26;;;;;;;2.78;1.00;;;;;;;9.66;72.89;99617.88;4965483;28;20031;-87
2023/04/02 00:33:52;;;;;;;2.28;1.20;;;;;;;9.61;72.94;99637.19;4959339;28;20143;-87
2023/04/02 00:36:22;;;;;;;2.22;0.93;;;;;;;9.63;72.92;99648.59;4941416;28;20047;-86
2023/04/02 00:38:47;;;;;;;5.05;1.10;;;;;;;9.62;72.56;99651.44;4950062;28;20114;-87
2023/04/02 00:41:17;;;;;;;1.80;1.00;;;;;;;9.59;72.50;99641.09;4934292;28;20054;-88
2023/04/02 00:43:45;;;;;;;3.95;1.00;;;;;;;9.70;71.93;99646.88;4937596;28;20054;-88
2023/04/02 00:46:17;;;;;;;2.20;1.25;;;;;;;9.66;71.85;99658.13;4945611;29;20051;-86
2023/04/02 00:49:02;;;;;;;3.05;1.05;;;;;;;9.57;71.52;99659.22;4971767;28;20059;-86
2023/04/02 00:51:52;;;;;;;2.38;1.23;;;;;;;9.55;71.91;99645.13;4943238;28;20043;-88
2023/04/02 00:54:21;;;;;;;1.50;1.00;;;;;;;9.50;71.88;99651.03;4934865;28;20437;-88
2023/04/02 00:56:52;;;;;;;2.38;1.10;;;;;;;9.51;71.95;99639.31;4926903;29;20040;-88
2023/04/02 00:59:38;;;;;;;2.38;1.10;;;;;;;9.48;71.97;99645.88;4909117;28;20043;-90
2023/04/02 01:02:25;;;;;;;3.03;1.00;;;;;;;9.49;71.47;99663.63;4936756;28;20043;-88
2023/04/02 01:05:13;;;;;;;3.45;1.00;;;;;;;9.40;71.58;99642.41;4944011;28;20116;-88
2023/04/02 01:07:52;;;;;;;1.80;1.20;;;;;;;9.47;71.54;99649.53;4956271;28;20067;-87
2023/04/02 01:10:58;;;;;;;1.90;1.23;;;;;;;9.48;71.66;99655.75;4967505;28;20078;-87
2023/04/02 01:13:25;;;;;;;;;;;;;;;9.42;71.98;99651.09;4942009;28;20069;-85
2023/04/02 01:16:13;;;;;;;1.92;1.10;;;;;;;9.32;72.19;99653.16;4932925;29;19915;-88
2023/04/02 01:18:57;;;;;;;2.05;1.42;;;;;;;9.37;72.66;99654.31;4952428;28;20062;-86
2023/04/02 01:21:27;;;;;;;3.45;1.45;;;;;;;9.37;72.77;99653.50;4941426;28;20047;-89
2023/04/02 01:24:10;;;;;;;2.20;1.40;;;;;;;9.27;73.04;99651.88;4944786;28;20133;-87
2023/04/02 01:26:36;;;;;;;4.28;1.80;;;;;;;9.28;73.27;99645.47;4926717;29;20191;-87
2023/04/02 01:29:29;;;;;;;5.93;2.13;;;;;;;9.29;73.51;99646.31;4940531;28;20077;-89
2023/04/02 01:32:01;;;;;;;6.85;2.20;;;;;;;9.23;73.44;99647.03;4941964;28;20151;-89
2023/04/02 01:34:27;;;;;;;4.68;2.45;;;;;;;9.17;73.89;99658.47;4919018;29;20394;-89
2023/04/02 01:36:58;;;;;;;5.45;2.42;;;;;;;9.14;73.86;99658.81;4925816;29;20057;-89
2023/04/02 01:39:43;;;;;;;3.65;2.28;;;;;;;9.06;74.00;99649.81;4948488;28;20065;-87
2023/04/02 01:42:15;;;;;;;3.30;2.00;;;;;;;9.02;74.22;99658.38;4936921;29;20035;-87
2023/04/02 01:45:12;;;;;;;3.47;2.10;;;;;;;8.92;74.17;99642.50;4952770;28;20151;-88
2023/04/02 01:47:38;;;;;;;2.50;1.65;;;;;;;9.07;74.02;99664.88;4943395;28;20216;-88
2023/04/02 01:50:35;;;;;;;2.97;1.80;;;;;;;9.15;73.56;99657.78;4938512;28;20099;-86
2023/04/02 01:53:06;;;;;;;2.65;1.70;;;;;;;9.00;73.88;99645.13;4944739;28;20054;-86
2023/04/02 01:56:13;;;;;;;3.10;1.67;;;;;;;9.00;73.83;99647.00;4931705;28;20103;-89
2023/04/02 01:58:39;;;;;;;2.45;1.50;;;;;;;9.03;74.00;99642.09;4841669;29;20045;-90
2023/04/02 02:01:15;;;;;;;2.17;1.52;;;;;;;9.04;73.72;99641.09;4833334;29;20054;-89
2023/04/02 02:03:42;;;;;;;2.60;1.60;;;;;;;8.98;73.93;99633.75;4903178;28;20130;-87
2023/04/02 02:06:18;;;;;;;;;;;;;;;9.01;73.98;99649.50;4903314;28;20093;-86
2023/04/02 02:09:07;;;;;;;2.97;1.70;;;;;;;8.88;74.57;99638.50;4932090;29;19951;-88
2023/04/02 02:11:35;;;;;;;2.28;1.40;;;;;;;9.00;74.31;99650.50;4915837;29;20111;-87
2023/04/02 02:14:19;;;;;;;3.38;1.65;;;;;;;8.82;74.37;99617.75;4902815;28;20093;-85
2023/04/02 02:16:46;;;;;;;3.15;1.83;;;;;;;8.82;74.25;99617.75;4914101;28;20088;-89
2023/04/02 02:19:26;;;;;;;2.60;1.73;;;;;;;9.02;73.88;99650.34;4934865;28;20183;-87
2023/04/02 02:21:55;;;;;;;3.47;1.70;;;;;;;9.11;73.66;99653.78;4950569;28;20129;-88
2023/04/02 02:24:22;;;;;;;2.50;1.50;;;;;;;9.08;73.94;99650.47;4915784;28;20153;-87
2023/04/02 02:27:03;;;;;;;3.55;1.80;;;;;;;8.98;73.73;99625.72;4916764;28;20050;-87
2023/04/02 02:29:34;;;;;;;3.78;1.60;;;;;;;9.19;73.54;99645.72;4930922;28;20059;-88
2023/04/02 02:32:00;;;;;;;2.67;1.75;;;;;;;9.13;73.39;99641.03;4926714;29;20368;-87
2023/04/02 02:34:31;;;;;;;3.50;2.40;;;;;;;9.13;73.29;99657.13;4945467;28;20031;-89
2023/04/02 02:37:29;;;;;;;4.50;2.35;;;;;;;9.17;73.17;99659.28;4922634;28;20047;-88
2023/04/02 02:39:57;;;;;;;3.78;2.38;;;;;;;9.19;72.91;99667.16;4901426;28;20050;-89
2023/04/02 02:42:51;;;;;;;4.40;2.20;;;;;;;9.30;72.57;99658.72;4924573;28;20081;-87
2023/04/02 02:45:24;;;;;;;3.22;2.20;;;;;;;9.37;72.19;99666.91;4933160;28;20496;-88
2023/04/02 02:47:50;;;;;;;3.40;2.10;;;;;;;9.36;72.56;99678.63;4930711;28;20119;-88
2023/04/02 02:50:27;;;;;;;3.30;2.20;;;;;;;9.33;71.91;99658.34;4922024;28;20054;-89
2023/04/02 02:52:56;;;;;;;3.60;2.38;;;;;;;9.27;71.99;99653.69;4927142;29;20047;-86
2023/04/02 02:55:33;;;;;;;4.80;1.85;;;;;;;9.44;71.97;99676.75;4928890;28;20070;-89
2023/04/02 02:58:15;;;;;;;3.53;2.10;;;;;;;9.41;71.91;99665.50;4930770;28;20066;-88
2023/04/02 03:00:42;;;;;;;3.97;2.10;;;;;;;9.46;71.84;99685.44;4923025;29;20123;-90
2023/04/02 03:03:24;;;;;;;2.85;1.90;;;;;;;9.51;71.85;99680.38;4925431;29;20110;-89
2023/04/02 03:06:19;;;;;;;3.40;1.92;;;;;;;9.52;71.66;99684.72;4945689;28;20137;-88
2023/04/02 03:09:22;;;;;;;5.20;1.90;;;;;;;9.55;71.53;99682.69;4941807;28;20036;-90
2023/04/02 03:11:57;;;;;;;3.30;2.10;;;;;;;9.51;71.83;99693.78;4929346;28;20372;-88
2023/04/02 03:14:46;;;;;;;6.28;2.25;;;;;;;9.59;71.75;99694.75;4906869;28;20047;-87
2023/04/02 03:17:47;;;;;;;6.18;2.33;;;;;;;9.67;71.47;99698.22;4925511;28;20113;-88
2023/04/02 03:20:20;;;;;;;4.93;3.10;;;;;;;9.75;70.86;99704.53;4934889;28;20065;-87
2023/04/02 03:23:15;;;;;;;5.03;3.35;;;;;;;9.76;71.31;99709.72;4933013;28;20041;-88
2023/04/02 03:26:04;;;;;;;8.55;4.28;;;;;;;9.81;71.20;99704.66;4920136;28;20428;-88
2023/04/02 03:28:33;;;;;;;10.23;3.97;;;;;;;9.90;71.17;99708.97;4940021;28;20213;-88
2023/04/02 03:31:07;;;;;;;12.55;4.53;;;;;;;10.02;70.39;99705.81;4914830;28;20426;-90
2023/04/02 03:33:43;;;;;;;6.65;4.43;;;;;;;9.98;70.05;99696.50;4943871;28;20047;-88
2023/04/02 03:36:52;;;;;;;6.68;3.80;;;;;;;10.06;70.10;99701.78;4912810;28;20473;-87
2023/04/02 03:39:40;;;;;;;5.20;3.58;;;;;;;10.01;69.94;99671.94;4938724;28;20040;-89
2023/04/02 03:42:18;;;;;;;7.00;3.80;;;;;;;9.88;70.76;99689.50;4942395;28;20046;-86
2023/04/02 03:44:45;;;;;;;6.38;3.95;;;;;;;9.87;70.83;99685.13;4918070;29;20218;-89
2023/04/02 03:47:19;;;;;;;6.45;4.00;;;;;;;9.78;71.14;99694.28;4933832;29;20360;-88
2023/04/02 03:49:54;;;;;;;7.13;4.15;;;;;;;9.81;71.34;99685.88;4923232;28;20118;-85
2023/04/02 03:52:27;;;;;;;6.47;3.65;;;;;;;9.83;70.96;99689.22;4949496;28;20388;-87
2023/04/02 03:54:56;;;;;;;8.35;3.80;;;;;;;9.65;71.46;99676.09;4937004;28;20036;-86
2023/04/02 03:57:37;;;;;;;6.90;3.58;;;;;;;9.77;71.17;99697.16;4937241;28;20062;-90
2023/04/02 04:00:10;;;;;;;6.97;3.60;;;;;;;9.73;71.26;99688.59;4926626;28;20155;-91
2023/04/02 04:02:46;;;;;;;5.55;3.40;;;;;;;9.76;71.38;99708.88;4907799;28;20047;-89
2023/04/02 04:05:43;;;;;;;5.72;3.20;;;;;;;9.75;71.54;99708.06;4947859;28;20039;-89
2023/04/02 04:08:28;;;;;;;4.78;3.28;;;;;;;9.61;71.74;99708.84;4907499;29;20478;-88
2023/04/02 04:10:57;;;;;;;;;;;;;;;9.79;71.83;99725.50;4912003;28;20046;-86
2023/04/02 04:13:45;;;;;;;7.68;3.28;;;;;;;9.69;71.50;99704.25;4950541;29;19978;-86
2023/04/02 04:16:18;;;;;;;7.38;4.38;;;;;;;9.84;71.19;99736.50;4945866;29;20051;-89
2023/04/02 04:19:02;;;;;;;8.50;4.57;;;;;;;9.82;71.34;99721.59;4942018;29;20054;-87
2023/04/02 04:21:29;;;;;;;7.40;4.38;;;;;;;9.96;71.28;99733.41;4953848;29;20427;-88
2023/04/02 04:24:02;;;;;;;7.95;5.03;;;;;;;10.12;71.02;99728.75;4970503;28;20062;-90
2023/04/02 04:26:48;;;;;;;9.48;5.38;;;;;;;10.20;70.36;99735.06;4931539;29;20202;-90
2023/04/02 04:29:37;;;;;;;;;;;;;;;10.40;69.96;99732.75;4933744;29;20978;-89
2023/04/02 04:32:41;;;;;;;9.90;6.25;;;;;;;10.55;69.28;99744.34;4945135;28;19918;-89
2023/04/02 04:35:21;;;;;;;12.18;6.45;;;;;;;10.59;68.91;99739.44;4899774;28;20142;-89
2023/04/02 04:37:52;;;;;;;9.63;6.38;;;;;;;10.65;68.65;99739.56;4907104;28;20054;-89
2023/04/02 04:40:53;;;;;;;9.38;6.47;;;;;;;10.74;68.32;99738.41;4921668;28;20107;-89
2023/04/02 04:43:42;;;;;;;12.25;6.95;;;;;;;10.78;68.03;99733.53;4943975;28;20050;-91
2023/04/02 04:46:43;;;;;;;21.75;9.93;;;;;;;10.82;67.90;99734.00;4936017;29;20047;-89
2023/04/02 04:49:33;;;;;;;13.85;7.18;;;;;;;10.95;67.69;99742.25;4952185;28;20138;-89
2023/04/02 04:52:26;;;;;;;12.02;7.47;;;;;;;10.84;67.37;99738.19;4917781;28;20138;-90
2023/04/02 04:54:52;;;;;;;12.27;6.63;;;;;;;10.68;67.28;99716.84;4953659;28;20122;-89
2023/04/02 04:57:35;;;;;;;12.10;7.10;;;;;;;10.85;67.54;99744.38;4936805;28;20407;-92
2023/04/02 05:00:19;;;;;;;12.20;7.10;;;;;;;10.82;67.18;99739.38;4934259;28;20110;-89
2023/04/02 05:02:47;;;;;;;10.75;6.60;;;;;;;10.81;67.61;99761.88;4954254;28;20074;-85
2023/04/02 05:05:32;;;;;;;8.38;5.65;;;;;;;10.93;66.92;99758.56;4945116;28;20044;-87
2023/04/02 05:08:06;;;;;;;8.57;5.38;;;;;;;11.04;66.60;99757.25;4930150;28;20087;-88
2023/04/02 05:10:52;;;;;;;7.38;5.25;;;;;;;10.94;66.83;99764.78;4943464;29;20035;-88
2023/04/02 05:13:51;;;;;;;15.05;8.23;;;;;;;11.12;66.49;99773.31;4935121;28;20085;-87
2023/04/02 05:16:42;;;;;;;8.00;4.72;;;;;;;11.22;65.99;99772.19;4928531;28;20138;-88
2023/04/02 05:19:16;;;;;;;8.38;4.55;;;;;;;11.31;65.71;99776.47;4942455;28;20051;-90
2023/04/02 05:21:44;;;;;;;14.70;4.55;;;;;;;11.40;64.95;99751.94;4931187;28;20511;-86
2023/04/02 05:24:43;;;;;;;5.30;3.92;;;;;;;11.81;64.17;99782.84;4934185;28;20462;-88
2023/04/02 05:27:20;;;;;;;6.63;3.70;;;;;;;11.96;63.00;99781.00;4939468;29;20039;-87
2023/04/02 05:29:50;;;;;;;5.20;3.22;;;;;;;12.57;61.08;99776.94;4921876;28;20051;-87
2023/04/02 05:32:22;;;;;;;5.03;3.30;;;;;;;15.06;54.39;99787.31;4942183;28;20135;-91
2023/04/02 05:34:52;;;;;;;5.55;3.42;;;;;;;16.58;49.21;99769.44;4949683;28;20157;-90
2023/04/02 05:37:25;;;;;;;5.97;3.30;;;;;;;15.26;52.11;99785.38;4897825;29;20135;-91
2023/04/02 05:40:23;;;;;;;10.65;3.40;;;;;;;16.03;50.21;99778.16;4903773;28;20515;-89
2023/04/02 05:42:54;;;;;;;5.15;3.47;;;;;;;15.44;51.48;99770.31;4925420;28;20039;-90
2023/04/02 05:45:33;;;;;;;6.00;3.38;;;;;;;16.24;50.15;99776.16;4928180;28;20050;-90
2023/04/02 05:48:00;;;;;;;7.07;3.38;;;;;;;15.95;50.39;99770.31;4932505;29;20051;-88
2023/04/02 05:50:36;;;;;;;8.15;4.30;;;;;;;15.41;51.50;99748.03;4917352;28;20043;-88
2023/04/02 05:53:25;;;;;;;8.95;4.82;;;;;;;15.03;52.45;99783.16;4937566;29;20043;-88
2023/04/02 05:55:58;;;;;;;7.95;4.72;;;;;;;14.85;53.36;99775.69;4934202;28;20057;-88
2023/04/02 05:58:40;;;;;;;10.30;6.60;;;;;;;14.68;53.27;99774.44;4947545;28;20039;-91
2023/04/02 06:01:21;;;;;;;6.53;4.40;;;;;;;14.64;53.61;99798.38;4917653;29;20050;-90
2023/04/02 06:03:49;;;;;;;6.20;3.72;;;;;;;14.38;54.73;99799.19;4933378;28;20044;-87
2023/04/02 06:06:41;;;;;;;7.15;3.20;;;;;;;14.03;55.44;99790.41;4931122;29;20098;-90
2023/04/02 06:09:45;;;;;;;8.32;3.00;;;;;;;14.30;54.72;99793.97;4933347;28;20185;-89
2023/04/02 06:12:30;;;;;;;8.30;3.30;;;;;;;14.20;55.46;99788.97;4939019;28;20066;-88
2023/04/02 06:14:55;;;;;;;5.45;2.97;;;;;;;14.62;54.08;99803.16;4929143;29;20137;-91
2023/04/02 06:17:28;;;;;;;4.50;2.88;;;;;;;15.63;51.91;99804.63;4918456;29;20039;-89
2023/04/02 06:19:56;;;;;;;9.50;3.20;;;;;;;16.29;50.22;99802.63;4938721;29;20055;-92
2023/04/02 06:22:38;;;;;;;5.40;2.90;;;;;;;16.82;48.25;99794.09;4915349;28;20092;-91
2023/04/02 06:25:19;;;;;;;5.38;3.20;;;;;;;17.10;46.76;99788.19;4919410;28;20128;-90
2023/04/02 06:27:48;;;;;;;5.20;2.50;;;;;;;17.73;46.20;99803.34;4938268;29;20044;-91
2023/04/02 06:30:24;;;;;;;6.05;2.50;;;;;;;17.78;45.57;99783.63;4932031;28;20043;-89
2023/04/02 06:33:23;;;;;;;4.32;2.58;;;;;;;18.48;44.02;99777.63;4949507;28;20043;-87
2023/04/02 06:35:51;;;;;;;7.72;2.60;;;;;;;19.40;42.06;99807.81;4944855;28;20044;-88
2023/04/02 06:38:24;;;;;;;5.15;2.20;;;;;;;19.25;41.64;99776.69;4958320;28;20077;-89
2023/04/02 06:41:00;;;;;;;5.25;3.05;;;;;;;19.28;41.96;99800.75;4916975;28;20121;-89
2023/04/02 06:44:04;;;;;;;3.85;2.28;;;;;;;20.12;40.22;99809.28;4947874;28;20046;-89
2023/04/02 06:46:40;;;;;;;3.33;2.17;;;;;;;19.02;41.79;99821.97;4954796;28;20055;-88
2023/04/02 06:49:35;;;;;;;5.22;2.20;;;;;;;19.12;41.78;99811.28;4931613;28;20114;-90
2023/04/02 06:52:28;;;;;;;;;;;;;;;18.77;42.61;99814.81;4950694;28;20049;-91
2023/04/02 06:54:54;;;;;;;8.55;2.55;;;;;;;18.67;42.27;99781.06;4946641;28;19918;-89
2023/04/02 06:57:34;;;;;;;;;;;;;;;18.81;42.96;99814.38;4906929;29;20054;-91
2023/04/02 07:00:01;;;;;;;7.07;2.60;;;;;;;18.42;43.23;99824.81;4933081;28;19925;-92
2023/04/02 07:02:37;;;;;;;7.05;2.50;;;;;;;18.15;43.79;99806.16;4922393;29;20058;-91
2023/04/02 07:05:34;;;;;;;3.45;2.13;;;;;;;18.01;44.67;99821.00;4925233;29;20051;-89
2023/04/02 07:08:15;;;;;;;;;;;;;;;;;;;;;
2023/04/02 07:10:48;;;;;;;4.85;1.52;;;;;;;18.33;43.27;99819.72;4932197;28;20108;-91
2023/04/02 07:13:22;;;;;;;4.93;1.35;;;;;;;18.10;43.28;99803.31;4931911;29;20043;-94
2023/04/02 07:15:56;;;;;;;5.75;1.45;;;;;;;17.40;44.77;99792.88;4928823;28;20050;-90
2023/04/02 07:18:35;;;;;;;3.53;1.40;;;;;;;17.83;44.36;99819.97;4943675;28;20055;-91
2023/04/02 07:21:23;;;;;;;5.05;1.40;;;;;;;17.89;44.52;99824.50;4952654;28;20080;-89
2023/04/02 07:24:01;;;;;;;2.83;1.50;;;;;;;17.59;44.66;99818.16;4920086;28;20103;-88
2023/04/02 07:27:40;;;;;;;;;;;;;;;;;;;;;
2023/04/02 07:30:09;;;;;;;3.47;1.45;;;;;;;17.20;46.24;99853.69;4929436;28;20142;-89
2023/04/02 07:32:50;;;;;;;;;;;;;;;17.33;46.03;99846.47;4923043;29;20353;-91
2023/04/02 07:35:22;;;;;;;3.83;1.30;;;;;;;16.79;47.17;99840.69;4940920;29;19926;-92
2023/04/02 07:37:51;;;;;;;7.03;1.60;;;;;;;16.14;48.67;99832.78;4913291;29;20149;-88
2023/04/02 07:40:20;;;;;;;2.80;1.48;;;;;;;16.62;48.13;99859.34;4917322;28;20054;-90
2023/04/02 07:42:50;;;;;;;5.97;1.80;;;;;;;16.76;47.87;99854.66;4927014;28;20074;-89
2023/04/02 07:45:22;;;;;;;3.78;1.45;;;;;;;16.32;48.29;99851.00;4935624;28;20482;-90
2023/04/02 07:47:53;;;;;;;3.40;1.50;;;;;;;16.39;48.37;99863.50;4925829;29;20055;-89
2023/04/02 07:50:23;;;;;;;2.83;1.60;;;;;;;15.94;49.57;99851.84;4938649;28;20050;-92
2023/04/02 07:52:48;;;;;;;6.10;1.70;;;;;;;15.52;50.30;99835.09;4923602;29;20150;-90
2023/04/02 07:55:14;;;;;;;;;;;;;;;15.32;51.41;99873.06;4918212;29;20086;-88
2023/04/02 07:57:53;;;;;;;5.90;2.67;;;;;;;14.63;53.35;99880.56;4937416;29;19915;-90
2023/04/02 08:00:24;;;;;;;4.05;2.50;;;;;;;14.31;54.13;99857.84;4939238;28;20125;-90
2023/04/02 08:02:55;;;;;;;3.33;2.70;;;;;;;14.41;54.13;99882.59;4917088;28;20145;-89
2023/04/02 08:05:23;;;;;;;3.72;2.70;;;;;;;14.04;54.78;99863.16;4920091;29;20437;-90
2023/04/02 08:07:57;;;;;;;17.15;3.13;;;;;;;13.75;55.89;99866.16;4947328;29;20079;-89
2023/04/02 08:10:32;;;;;;;4.70;2.70;;;;;;;13.77;56.51;99874.91;4955929;28;20045;-89
2023/04/02 08:13:03;;;;;;;4.95;2.50;;;;;;;13.67;57.02;99869.84;4955848;28;20043;-93
2023/04/02 08:15:38;;;;;;;4.10;2.72;;;;;;;13.44;57.59;99865.59;4930152;28;20055;-93
2023/04/02 08:18:03;;;;;;;4.80;2.95;;;;;;;13.41;58.46;99865.16;4943906;29;20044;-91
2023/04/02 08:20:31;;;;;;;3.35;2.30;;;;;;;13.49;57.74;99882.03;4911067;29;20052;-86
2023/04/02 08:22:59;;;;;;;5.45;2.90;;;;;;;13.61;58.14;99898.50;4902360;29;20035;-88
2023/04/02 08:25:25;;;;;;;5.18;2.70;;;;;;;13.57;58.07;99894.53;4927931;28;20046;-90
2023/04/02 08:27:51;;;;;;;3.47;2.55;;;;;;;13.80;58.38;99909.63;4944399;28;20113;-90
2023/04/02 08:30:18;;;;;;;3.60;2.40;;;;;;;13.55;57.68;99890.38;4946159;29;20035;-89
2023/04/02 08:32:45;;;;;;;4.45;2.10;;;;;;;13.63;57.14;99893.75;4928114;28;20138;-89
2023/04/02 08:35:15;;;;;;;4.80;2.47;;;;;;;13.85;56.96;99916.06;4919791;29;20142;-90
2023/04/02 08:37:45;;;;;;;5.00;2.17;;;;;;;13.93;56.31;99874.56;4922257;29;20052;-90
2023/04/02 08:40:35;;;;;;;3.80;2.00;;;;;;;14.44;55.52;99902.97;4923131;29;20036;-87
2023/04/02 08:43:09;;;;;;;5.13;1.90;;;;;;;14.49;55.43;99897.78;4930507;28;20157;-91
2023/04/02 08:45:38;;;;;;;2.90;1.70;;;;;;;14.78;54.82;99896.63;4943422;28;20043;-92
2023/04/02 08:48:05;;;;;;;3.58;1.70;;;;;;;14.95;53.92;99902.47;4935979;28;20468;-87
2023/04/02 08:50:38;;;;;;;2.78;1.77;;;;;;;15.17;52.65;99881.41;4950140;28;20442;-87
2023/04/02 08:53:07;;;;;;;4.22;2.00;;;;;;;15.69;51.61;99893.19;4934056;28;20053;-88
2023/04/02 08:56:08;;;;;;;7.53;2.03;;;;;;;15.93;50.82;99880.84;4910081;28;20070;-89
2023/04/02 08:58:43;;;;;;;3.70;2.00;;;;;;;16.09;50.25;99922.91;4930603;28;20039;-88
2023/04/02 09:01:19;;;;;;;2.97;1.60;;;;;;;15.89;50.09;99900.44;4928560;28;20493;-88
2023/04/02 09:03:53;;;;;;;;;;;;;;;15.57;50.78;99940.97;4938129;28;20043;-90
2023/04/02 09:06:19;;;;;;;4.57;1.40;;;;;;;15.25;50.84;99902.88;4934199;28;19919;-83
2023/04/02 09:08:46;;;;;;;5.28;2.33;;;;;;;15.22;51.39;99905.16;4923637;28;20053;-84
2023/04/02 09:11:26;;;;;;;4.13;1.60;;;;;;;15.41;51.79;99928.69;4916527;29;20063;-84
2023/04/02 09:13:59;;;;;;;3.78;1.50;;;;;;;15.37;51.81;99922.84;4935454;29;20032;-84
2023/04/02 09:17:00;;;;;;;2.47;1.40;;;;;;;15.30;51.81;99926.59;4933266;29;20070;-81
2023/04/02 09:19:56;;;;;;;3.72;1.98;;;;;;;15.51;51.62;99936.38;4934959;29;20051;-84
2023/04/02 09:22:31;;;;;;;3.50;1.90;;;;;;;15.51;51.80;99925.53;4909672;29;20047;-85
2023/04/02 09:25:03;;;;;;;5.20;2.10;;;;;;;15.58;51.27;99919.06;4918539;29;20054;-84
2023/04/02 09:27:32;;;;;;;2.85;1.90;;;;;;;15.45;52.17;99926.38;4941366;29;20039;-85
2023/04/02 09:30:30;;;;;;;4.72;2.28;;;;;;;15.49;52.27;99935.75;4942562;29;20035;-82
2023/04/02 09:32:58;;;;;;;5.03;2.40;;;;;;;15.76;51.56;99907.59;4948619;28;20114;-85
2023/04/02 09:35:26;;;;;;;3.10;2.17;;;;;;;15.80;51.82;99922.38;4930863;28;20516;-81
2023/04/02 09:38:16;;;;;;;3.33;1.98;;;;;;;16.39;50.55;99927.78;4927103;29;20039;-85
2023/04/02 09:40:59;;;;;;;4.13;1.95;;;;;;;16.53;50.17;99926.66;4951181;28;20039;-89
2023/04/02 09:43:31;;;;;;;14.18;2.35;;;;;;;16.67;49.43;99930.94;4934462;29;20146;-91
2023/04/02 09:46:25;;;;;;;4.97;1.80;;;;;;;16.52;48.97;99911.41;4927814;28;20058;-86
2023/04/02 09:48:56;;;;;;;6.68;2.20;;;;;;;16.75;48.66;99931.72;4919599;28;20101;-87
2023/04/02 09:51:41;;;;;;;4.10;2.10;;;;;;;16.88;48.53;99926.25;4948154;29;20058;-89
2023/04/02 09:54:11;;;;;;;2.95;1.80;;;;;;;17.95;45.71;99926.06;4920609;29;20500;-87
2023/04/02 09:56:37;;;;;;;8.68;2.00;;;;;;;19.79;41.33;99892.66;4956868;28;20031;-93
2023/04/02 09:59:16;;;;;;;5.10;1.80;;;;;;;21.07;39.21;99930.59;4936648;29;20050;-88
2023/04/02 10:01:57;;;;;;;5.25;1.90;;;;;;;21.67;37.38;99923.59;4960638;28;20039;-91
2023/04/02 10:04:36;;;;;;;4.18;1.55;;;;;;;20.84;38.91;99937.03;4937766;29;20062;-89
2023/04/02 10:07:02;;;;;;;3.45;1.92;;;;;;;22.99;34.94;99903.50;4934962;29;20043;-88
2023/04/02 10:10:00;;;;;;;8.07;2.20;;;;;;;24.75;31.94;99926.13;4923390;29;20465;-92
2023/04/02 10:12:48;;;;;;;3.10;1.48;;;;;;;23.60;32.95;99928.66;4948183;29;20047;-90
2023/04/02 10:15:39;;;;;;;3.65;1.50;;;;;;;22.67;34.83;99919.91;4937745;29;20039;-94
2023/04/02 10:18:33;;;;;;;2.85;1.77;;;;;;;22.21;36.01;99927.63;4922782;29;20069;-92
2023/04/02 10:21:05;;;;;;;3.35;1.55;;;;;;;21.70;36.71;99925.84;4956743;28;20095;-92
2023/04/02 10:23:37;;;;;;;4.00;1.80;;;;;;;20.85;38.43;99924.19;4941481;29;20040;-90
2023/04/02 10:26:31;;;;;;;4.07;1.67;;;;;;;20.11;39.88;99944.09;4942744;29;20078;-89
2023/04/02 10:29:22;;;;;;;2.97;1.70;;;;;;;19.15;42.25;99948.94;4949029;29;20050;-93
2023/04/02 10:32:44;;;;;;;2.40;1.60;;;;;;;18.25;44.17;99947.06;4946181;29;20035;-91
2023/04/02 10:35:31;;;;;;;3.13;1.90;;;;;;;18.61;43.76;99959.75;4848995;29;20053;-95
2023/04/02 10:38:27;;;;;;;4.90;1.92;;;;;;;18.15;44.87;99961.22;4868102;29;20411;-94
2023/04/02 10:41:31;;;;;;;2.80;1.75;;;;;;;17.76;46.16;99966.00;4860947;29;20572;-89
2023/04/02 10:44:25;;;;;;;3.40;1.88;;;;;;;17.82;46.43;99972.47;4929062;29;20043;-91
2023/04/02 10:47:02;;;;;;;7.10;1.80;;;;;;;18.16;45.76;99968.31;4949643;28;20380;-92
2023/04/02 10:50:43;;;;;;;6.30;2.10;;;;;;;18.94;44.05;99975.66;4936141;29;20048;-91
2023/04/02 10:53:48;;;;;;;3.53;2.67;;;;;;;18.28;45.11;99985.53;4851187;29;20045;-93
2023/04/02 10:56:40;;;;;;;;;;;;;;;18.42;44.89;99985.38;4963228;29;20042;-90
2023/04/02 10:59:20;;;;;;;3.00;1.67;;;;;;;18.07;45.47;99977.81;4947417;28;19925;-90
2023/04/02 11:01:47;;;;;;;2.13;1.48;;;;;;;18.01;45.96;99986.91;4931959;29;20125;-92
2023/04/02 11:04:22;;;;;;;4.70;1.67;;;;;;;18.23;45.42;99971.78;4905599;29;20047;-91
2023/04/02 11:07:03;;;;;;;4.90;1.80;;;;;;;18.27;44.96;99973.00;4923226;29;20043;-91
2023/04/02 11:09:32;;;;;;;2.20;1.35;;;;;;;17.98;45.07;99984.63;4903695;29;20043;-90
2023/04/02 11:12:00;;;;;;;3.05;1.40;;;;;;;17.87;45.42;99976.16;4924247;29;20043;-91
2023/04/02 11:14:28;;;;;;;5.72;1.80;;;;;;;17.87;45.51;99980.78;4911936;29;20554;-89
2023/04/02 11:16:57;;;;;;;3.42;1.45;;;;;;;17.57;45.96;99958.88;4935302;29;20229;-88
2023/04/02 11:19:31;;;;;;;3.88;1.40;;;;;;;17.48;46.25;99972.75;4903279;29;20503;-89
2023/04/02 11:21:58;;;;;;;5.68;1.58;;;;;;;17.20;46.92;99969.66;4946272;29;20039;-88
2023/04/02 11:24:32;;;;;;;4.22;1.50;;;;;;;18.24;44.77;99981.63;4940579;29;20142;-91
2023/04/02 11:27:10;;;;;;;2.58;1.40;;;;;;;19.31;42.24;99977.38;4935452;29;20138;-90
2023/04/02 11:29:42;;;;;;;4.50;1.40;;;;;;;19.24;42.28;99976.66;4926117;29;20522;-89
2023/04/02 11:32:20;;;;;;;2.60;1.40;;;;;;;19.11;41.50;99984.00;4947354;28;20046;-87
2023/04/02 11:34:50;;;;;;;4.60;1.50;;;;;;;18.43;42.42;99976.16;4920205;29;20055;-88
2023/04/02 11:37:43;;;;;;;4.20;1.30;;;;;;;18.20;43.17;99982.28;4954104;28;20055;-93
2023/04/02 11:40:14;;;;;;;2.60;1.52;;;;;;;18.08;43.29;99958.56;4958537;29;20046;-88
2023/04/02 11:42:54;;;;;;;2.20;1.30;;;;;;;18.11;43.36;99985.31;4946724;28;20091;-90
2023/04/02 11:45:25;;;;;;;2.30;1.20;;;;;;;18.43;43.03;99978.88;4938255;29;20051;-89
2023/04/02 11:48:12;;;;;;;4.07;1.40;;;;;;;18.70;42.15;99982.88;4948606;29;20035;-89
2023/04/02 11:50:44;;;;;;;4.55;1.45;;;;;;;19.46;41.01;99980.50;4961895;29;20043;-89
2023/04/02 11:53:13;;;;;;;8.15;6.28;;;;;;;19.93;39.65;99985.97;4936093;29;20138;-88
2023/04/02 11:56:06;;;;;;;4.00;1.88;;;;;;;20.75;37.32;99984.13;4940474;28;20142;-90
2023/04/02 11:59:05;;;;;;;3.55;1.20;;;;;;;21.00;36.55;99983.75;4926913;29;20044;-88
2023/04/02 12:01:44;;;;;;;6.90;2.00;;;;;;;20.98;36.34;99980.44;4941815;29;20051;-87
2023/04/02 12:04:23;;;;;;;2.50;1.20;;;;;;;21.11;35.82;99973.84;4961984;29;20039;-87
2023/04/02 12:06:48;;;;;;;3.08;1.20;;;;;;;20.42;36.21;99975.53;4928010;29;20059;-90
2023/04/02 12:09:54;;;;;;;1.88;1.13;;;;;;;20.78;36.24;99987.19;4955337;29;20039;-87
2023/04/02 12:12:41;;;;;;;3.15;1.10;;;;;;;20.64;36.27;99992.09;4946352;28;20043;-89
2023/04/02 12:15:32;;;;;;;3.92;1.40;;;;;;;21.08;35.79;99988.81;4937351;29;20118;-93
2023/04/02 12:18:17;;;;;;;2.92;1.25;;;;;;;20.63;36.23;99973.25;4950389;28;20460;-90
2023/04/02 12:20:57;;;;;;;2.05;1.00;;;;;;;19.90;37.25;99986.47;4939280;29;20055;-92
2023/04/02 12:23:30;;;;;;;3.33;1.20;;;;;;;19.87;37.80;99984.19;4928763;29;20044;-93
2023/04/02 12:26:00;;;;;;;3.00;1.50;;;;;;;19.35;39.08;99989.50;4938301;28;20068;-91
2023/04/02 12:28:32;;;;;;;3.58;1.38;;;;;;;19.23;39.80;99991.38;4922093;29;20055;-92
2023/04/02 12:31:08;;;;;;;4.03;1.48;;;;;;;18.66;41.26;99987.16;4930765;29;20041;-91
2023/04/02 12:33:52;;;;;;;2.30;1.30;;;;;;;18.55;41.33;99987.91;4943315;29;20043;-91
2023/04/02 12:36:20;;;;;;;2.47;1.40;;;;;;;18.86;41.91;99988.78;4925746;29;20071;-92